sensor_id;sensor_type;location;lat;lon;timestamp;P1;durP1;ratioP1;P2;durP2;ratioP2
8058;SDS011;4072;42.668;23.396;2023-06-10T00:00:51;7.10;;;5.23;;
8058;SDS011;4072;42.668;23.396;2023-06-10T00:03:19;7.07;;;5.57;;
8058;SDS011;4072;42.668;23.396;2023-06-10T00:05:50;6.53;;;5.93;;
8058;SDS011;4072;42.668;23.396;2023-06-10T00:08:19;7.43;;;6.67;;
8058;SDS011;4072;42.668;23.396;2023-06-10T00:10:49;10.93;;;8.93;;
8058;SDS011;4072;42.668;23.396;2023-06-10T00:13:17;13.43;;;9.30;;
8058;SDS011;4072;42.668;23.396;2023-06-10T00:15:45;11.23;;;9.07;;
8058;SDS011;4072;42.668;23.396;2023-06-10T00:18:13;9.23;;;8.43;;
8058;SDS011;4072;42.668;23.396;2023-06-10T00:20:43;10.03;;;8.37;;
8058;SDS011;4072;42.668;23.396;2023-06-10T00:23:12;9.90;;;8.57;;
8058;SDS011;4072;42.668;23.396;2023-06-10T00:25:41;9.80;;;8.90;;
8058;SDS011;4072;42.668;23.396;2023-06-10T00:28:10;11.63;;;8.53;;
8058;SDS011;4072;42.668;23.396;2023-06-10T00:30:39;9.93;;;9.03;;
8058;SDS011;4072;42.668;23.396;2023-06-10T00:33:08;11.10;;;9.70;;
8058;SDS011;4072;42.668;23.396;2023-06-10T00:35:36;9.33;;;8.07;;
8058;SDS011;4072;42.668;23.396;2023-06-10T00:38:05;11.83;;;8.70;;
8058;SDS011;4072;42.668;23.396;2023-06-10T00:40:38;9.33;;;7.63;;
8058;SDS011;4072;42.668;23.396;2023-06-10T00:43:09;9.27;;;8.37;;
8058;SDS011;4072;42.668;23.396;2023-06-10T00:45:37;10.40;;;7.23;;
8058;SDS011;4072;42.668;23.396;2023-06-10T00:48:06;11.27;;;7.87;;
8058;SDS011;4072;42.668;23.396;2023-06-10T00:50:35;8.67;;;7.87;;
8058;SDS011;4072;42.668;23.396;2023-06-10T00:53:05;10.80;;;8.20;;
8058;SDS011;4072;42.668;23.396;2023-06-10T00:55:34;9.83;;;8.60;;
8058;SDS011;4072;42.668;23.396;2023-06-10T00:58:02;9.03;;;8.13;;
8058;SDS011;4072;42.668;23.396;2023-06-10T01:00:32;8.07;;;7.27;;
8058;SDS011;4072;42.668;23.396;2023-06-10T01:03:01;9.33;;;8.40;;
8058;SDS011;4072;42.668;23.396;2023-06-10T01:05:35;8.17;;;7.20;;
8058;SDS011;4072;42.668;23.396;2023-06-10T01:08:07;11.03;;;8.27;;
8058;SDS011;4072;42.668;23.396;2023-06-10T01:10:42;9.10;;;8.30;;
8058;SDS011;4072;42.668;23.396;2023-06-10T01:13:15;8.73;;;8.03;;
8058;SDS011;4072;42.668;23.396;2023-06-10T01:15:46;9.50;;;8.60;;
8058;SDS011;4072;42.668;23.396;2023-06-10T01:18:14;9.50;;;8.33;;
8058;SDS011;4072;42.668;23.396;2023-06-10T01:20:44;10.43;;;9.33;;
8058;SDS011;4072;42.668;23.396;2023-06-10T01:23:18;11.27;;;9.10;;
8058;SDS011;4072;42.668;23.396;2023-06-10T01:25:47;9.83;;;8.77;;
8058;SDS011;4072;42.668;23.396;2023-06-10T01:28:22;9.33;;;8.50;;
8058;SDS011;4072;42.668;23.396;2023-06-10T01:30:56;11.20;;;8.43;;
8058;SDS011;4072;42.668;23.396;2023-06-10T01:33:35;10.73;;;8.87;;
8058;SDS011;4072;42.668;23.396;2023-06-10T01:36:05;10.13;;;9.10;;
8058;SDS011;4072;42.668;23.396;2023-06-10T01:38:39;10.50;;;9.13;;
8058;SDS011;4072;42.668;23.396;2023-06-10T01:41:12;9.77;;;8.77;;
8058;SDS011;4072;42.668;23.396;2023-06-10T01:43:43;9.80;;;8.87;;
8058;SDS011;4072;42.668;23.396;2023-06-10T01:46:12;10.53;;;9.53;;
8058;SDS011;4072;42.668;23.396;2023-06-10T01:48:42;12.17;;;9.70;;
8058;SDS011;4072;42.668;23.396;2023-06-10T01:51:10;10.33;;;9.17;;
8058;SDS011;4072;42.668;23.396;2023-06-10T01:53:41;10.67;;;9.57;;
8058;SDS011;4072;42.668;23.396;2023-06-10T01:56:09;9.70;;;8.87;;
8058;SDS011;4072;42.668;23.396;2023-06-10T01:58:43;9.93;;;9.03;;
8058;SDS011;4072;42.668;23.396;2023-06-10T02:01:11;15.47;;;9.57;;
8058;SDS011;4072;42.668;23.396;2023-06-10T02:03:41;11.03;;;9.80;;
8058;SDS011;4072;42.668;23.396;2023-06-10T02:06:11;10.67;;;8.87;;
8058;SDS011;4072;42.668;23.396;2023-06-10T02:08:40;10.37;;;9.13;;
8058;SDS011;4072;42.668;23.396;2023-06-10T02:11:08;10.07;;;9.17;;
8058;SDS011;4072;42.668;23.396;2023-06-10T02:13:38;9.83;;;8.93;;
8058;SDS011;4072;42.668;23.396;2023-06-10T02:16:06;10.40;;;9.50;;
8058;SDS011;4072;42.668;23.396;2023-06-10T02:18:35;10.73;;;9.73;;
8058;SDS011;4072;42.668;23.396;2023-06-10T02:21:04;10.80;;;9.73;;
8058;SDS011;4072;42.668;23.396;2023-06-10T02:23:33;10.70;;;9.60;;
8058;SDS011;4072;42.668;23.396;2023-06-10T02:26:03;12.27;;;10.30;;
8058;SDS011;4072;42.668;23.396;2023-06-10T02:28:32;11.37;;;10.17;;
8058;SDS011;4072;42.668;23.396;2023-06-10T02:31:00;10.57;;;9.57;;
8058;SDS011;4072;42.668;23.396;2023-06-10T02:33:28;10.60;;;9.57;;
8058;SDS011;4072;42.668;23.396;2023-06-10T02:35:56;10.60;;;9.53;;
8058;SDS011;4072;42.668;23.396;2023-06-10T02:38:25;9.47;;;8.67;;
8058;SDS011;4072;42.668;23.396;2023-06-10T02:40:54;10.27;;;9.33;;
8058;SDS011;4072;42.668;23.396;2023-06-10T02:43:24;10.43;;;9.40;;
8058;SDS011;4072;42.668;23.396;2023-06-10T02:45:52;10.63;;;9.53;;
8058;SDS011;4072;42.668;23.396;2023-06-10T02:48:23;13.13;;;10.57;;
8058;SDS011;4072;42.668;23.396;2023-06-10T02:50:52;11.57;;;9.23;;
8058;SDS011;4072;42.668;23.396;2023-06-10T02:53:20;10.33;;;9.33;;
8058;SDS011;4072;42.668;23.396;2023-06-10T02:55:48;10.63;;;9.53;;
8058;SDS011;4072;42.668;23.396;2023-06-10T02:58:17;14.17;;;9.57;;
8058;SDS011;4072;42.668;23.396;2023-06-10T03:00:46;10.63;;;9.53;;
8058;SDS011;4072;42.668;23.396;2023-06-10T03:03:15;11.23;;;10.13;;
8058;SDS011;4072;42.668;23.396;2023-06-10T03:05:43;10.17;;;9.17;;
8058;SDS011;4072;42.668;23.396;2023-06-10T03:08:11;10.03;;;9.13;;
8058;SDS011;4072;42.668;23.396;2023-06-10T03:10:40;11.00;;;9.83;;
8058;SDS011;4072;42.668;23.396;2023-06-10T03:13:08;10.37;;;9.37;;
8058;SDS011;4072;42.668;23.396;2023-06-10T03:15:37;11.70;;;9.70;;
8058;SDS011;4072;42.668;23.396;2023-06-10T03:18:09;11.27;;;10.10;;
8058;SDS011;4072;42.668;23.396;2023-06-10T03:20:37;9.97;;;8.87;;
8058;SDS011;4072;42.668;23.396;2023-06-10T03:23:06;10.73;;;8.70;;
8058;SDS011;4072;42.668;23.396;2023-06-10T03:25:34;11.27;;;9.43;;
8058;SDS011;4072;42.668;23.396;2023-06-10T03:28:03;9.33;;;8.40;;
8058;SDS011;4072;42.668;23.396;2023-06-10T03:30:31;8.53;;;7.73;;
8058;SDS011;4072;42.668;23.396;2023-06-10T03:33:00;8.57;;;7.77;;
8058;SDS011;4072;42.668;23.396;2023-06-10T03:35:30;9.03;;;8.13;;
8058;SDS011;4072;42.668;23.396;2023-06-10T03:37:59;10.63;;;8.87;;
8058;SDS011;4072;42.668;23.396;2023-06-10T03:40:27;9.37;;;8.40;;
8058;SDS011;4072;42.668;23.396;2023-06-10T03:42:57;9.27;;;8.47;;
8058;SDS011;4072;42.668;23.396;2023-06-10T03:45:25;8.67;;;7.87;;
8058;SDS011;4072;42.668;23.396;2023-06-10T03:47:54;10.80;;;9.80;;
8058;SDS011;4072;42.668;23.396;2023-06-10T03:50:24;14.43;;;12.97;;
8058;SDS011;4072;42.668;23.396;2023-06-10T03:52:54;15.27;;;13.87;;
8058;SDS011;4072;42.668;23.396;2023-06-10T03:55:22;14.73;;;13.33;;
8058;SDS011;4072;42.668;23.396;2023-06-10T03:57:51;12.77;;;11.47;;
8058;SDS011;4072;42.668;23.396;2023-06-10T04:00:19;12.67;;;11.47;;
8058;SDS011;4072;42.668;23.396;2023-06-10T04:02:49;12.43;;;11.23;;
8058;SDS011;4072;42.668;23.396;2023-06-10T04:05:19;13.13;;;11.83;;
8058;SDS011;4072;42.668;23.396;2023-06-10T04:07:49;13.07;;;11.83;;
8058;SDS011;4072;42.668;23.396;2023-06-10T04:10:20;14.17;;;12.73;;
8058;SDS011;4072;42.668;23.396;2023-06-10T04:12:50;13.97;;;12.57;;
8058;SDS011;4072;42.668;23.396;2023-06-10T04:15:19;14.27;;;12.93;;
8058;SDS011;4072;42.668;23.396;2023-06-10T04:17:48;19.67;;;14.90;;
8058;SDS011;4072;42.668;23.396;2023-06-10T04:20:16;16.67;;;14.90;;
8058;SDS011;4072;42.668;23.396;2023-06-10T04:22:45;15.80;;;14.30;;
8058;SDS011;4072;42.668;23.396;2023-06-10T04:25:13;14.00;;;12.70;;
8058;SDS011;4072;42.668;23.396;2023-06-10T04:27:44;13.47;;;12.17;;
8058;SDS011;4072;42.668;23.396;2023-06-10T04:30:13;13.43;;;11.30;;
8058;SDS011;4072;42.668;23.396;2023-06-10T04:32:41;12.07;;;10.87;;
8058;SDS011;4072;42.668;23.396;2023-06-10T04:35:11;11.63;;;10.43;;
8058;SDS011;4072;42.668;23.396;2023-06-10T04:37:39;12.33;;;11.00;;
8058;SDS011;4072;42.668;23.396;2023-06-10T04:40:08;11.03;;;10.10;;
8058;SDS011;4072;42.668;23.396;2023-06-10T04:42:37;12.40;;;11.10;;
8058;SDS011;4072;42.668;23.396;2023-06-10T04:45:08;13.83;;;11.20;;
8058;SDS011;4072;42.668;23.396;2023-06-10T04:47:37;14.97;;;10.63;;
8058;SDS011;4072;42.668;23.396;2023-06-10T04:50:06;12.30;;;8.93;;
8058;SDS011;4072;42.668;23.396;2023-06-10T04:52:34;12.60;;;10.10;;
8058;SDS011;4072;42.668;23.396;2023-06-10T04:55:03;11.67;;;9.73;;
8058;SDS011;4072;42.668;23.396;2023-06-10T04:57:33;11.17;;;9.67;;
8058;SDS011;4072;42.668;23.396;2023-06-10T05:00:01;10.57;;;9.50;;
8058;SDS011;4072;42.668;23.396;2023-06-10T05:02:34;11.30;;;10.10;;
8058;SDS011;4072;42.668;23.396;2023-06-10T05:05:02;13.67;;;11.90;;
8058;SDS011;4072;42.668;23.396;2023-06-10T05:07:31;13.23;;;9.90;;
8058;SDS011;4072;42.668;23.396;2023-06-10T05:09:59;11.37;;;9.83;;
8058;SDS011;4072;42.668;23.396;2023-06-10T05:12:28;10.93;;;9.83;;
8058;SDS011;4072;42.668;23.396;2023-06-10T05:14:56;11.57;;;10.10;;
8058;SDS011;4072;42.668;23.396;2023-06-10T05:17:24;11.07;;;10.07;;
8058;SDS011;4072;42.668;23.396;2023-06-10T05:19:57;12.30;;;10.60;;
8058;SDS011;4072;42.668;23.396;2023-06-10T05:22:25;11.33;;;10.00;;
8058;SDS011;4072;42.668;23.396;2023-06-10T05:24:53;11.33;;;10.03;;
8058;SDS011;4072;42.668;23.396;2023-06-10T05:27:24;11.73;;;10.60;;
8058;SDS011;4072;42.668;23.396;2023-06-10T05:29:52;10.83;;;9.73;;
8058;SDS011;4072;42.668;23.396;2023-06-10T05:32:20;10.73;;;9.63;;
8058;SDS011;4072;42.668;23.396;2023-06-10T05:34:48;11.27;;;10.17;;
8058;SDS011;4072;42.668;23.396;2023-06-10T05:37:18;12.80;;;11.00;;
8058;SDS011;4072;42.668;23.396;2023-06-10T05:39:48;12.30;;;10.27;;
8058;SDS011;4072;42.668;23.396;2023-06-10T05:42:16;13.30;;;10.43;;
8058;SDS011;4072;42.668;23.396;2023-06-10T05:44:45;13.33;;;10.10;;
8058;SDS011;4072;42.668;23.396;2023-06-10T05:47:13;11.23;;;9.97;;
8058;SDS011;4072;42.668;23.396;2023-06-10T05:49:41;12.13;;;10.60;;
8058;SDS011;4072;42.668;23.396;2023-06-10T05:52:12;11.17;;;9.80;;
8058;SDS011;4072;42.668;23.396;2023-06-10T05:54:42;14.30;;;12.27;;
8058;SDS011;4072;42.668;23.396;2023-06-10T05:57:11;12.97;;;11.07;;
8058;SDS011;4072;42.668;23.396;2023-06-10T05:59:40;12.73;;;11.23;;
8058;SDS011;4072;42.668;23.396;2023-06-10T06:02:08;12.30;;;9.13;;
8058;SDS011;4072;42.668;23.396;2023-06-10T06:04:36;13.43;;;9.73;;
8058;SDS011;4072;42.668;23.396;2023-06-10T06:07:04;12.83;;;10.70;;
8058;SDS011;4072;42.668;23.396;2023-06-10T06:09:33;16.43;;;11.33;;
8058;SDS011;4072;42.668;23.396;2023-06-10T06:12:03;12.83;;;10.97;;
8058;SDS011;4072;42.668;23.396;2023-06-10T06:14:32;13.37;;;11.07;;
8058;SDS011;4072;42.668;23.396;2023-06-10T06:17:04;11.20;;;10.00;;
8058;SDS011;4072;42.668;23.396;2023-06-10T06:19:33;13.07;;;11.23;;
8058;SDS011;4072;42.668;23.396;2023-06-10T06:22:01;11.63;;;9.97;;
8058;SDS011;4072;42.668;23.396;2023-06-10T06:24:30;11.67;;;10.33;;
8058;SDS011;4072;42.668;23.396;2023-06-10T06:26:58;11.10;;;10.00;;
8058;SDS011;4072;42.668;23.396;2023-06-10T06:29:28;12.40;;;10.87;;
8058;SDS011;4072;42.668;23.396;2023-06-10T06:31:58;12.00;;;10.63;;
8058;SDS011;4072;42.668;23.396;2023-06-10T06:34:26;12.03;;;10.53;;
8058;SDS011;4072;42.668;23.396;2023-06-10T06:36:54;15.63;;;12.13;;
8058;SDS011;4072;42.668;23.396;2023-06-10T06:39:22;12.20;;;10.87;;
8058;SDS011;4072;42.668;23.396;2023-06-10T06:41:51;13.07;;;11.77;;
8058;SDS011;4072;42.668;23.396;2023-06-10T06:44:19;15.43;;;13.70;;
8058;SDS011;4072;42.668;23.396;2023-06-10T06:46:48;14.73;;;12.17;;
8058;SDS011;4072;42.668;23.396;2023-06-10T06:49:17;13.63;;;12.10;;
8058;SDS011;4072;42.668;23.396;2023-06-10T06:51:47;12.30;;;11.20;;
8058;SDS011;4072;42.668;23.396;2023-06-10T06:54:15;13.93;;;11.20;;
8058;SDS011;4072;42.668;23.396;2023-06-10T06:56:44;13.60;;;12.37;;
8058;SDS011;4072;42.668;23.396;2023-06-10T06:59:12;14.23;;;12.73;;
8058;SDS011;4072;42.668;23.396;2023-06-10T07:01:41;13.43;;;11.93;;
8058;SDS011;4072;42.668;23.396;2023-06-10T07:04:11;12.87;;;11.50;;
8058;SDS011;4072;42.668;23.396;2023-06-10T07:06:39;12.67;;;11.37;;
8058;SDS011;4072;42.668;23.396;2023-06-10T07:09:08;12.83;;;11.50;;
8058;SDS011;4072;42.668;23.396;2023-06-10T07:11:36;11.67;;;10.33;;
8058;SDS011;4072;42.668;23.396;2023-06-10T07:14:04;10.77;;;9.80;;
8058;SDS011;4072;42.668;23.396;2023-06-10T07:16:34;10.73;;;8.90;;
8058;SDS011;4072;42.668;23.396;2023-06-10T07:19:02;12.00;;;8.70;;
8058;SDS011;4072;42.668;23.396;2023-06-10T07:21:33;11.20;;;8.33;;
8058;SDS011;4072;42.668;23.396;2023-06-10T07:24:02;10.03;;;8.07;;
8058;SDS011;4072;42.668;23.396;2023-06-10T07:26:31;9.97;;;7.53;;
8058;SDS011;4072;42.668;23.396;2023-06-10T07:29:00;9.33;;;8.40;;
8058;SDS011;4072;42.668;23.396;2023-06-10T07:31:29;9.47;;;7.37;;
8058;SDS011;4072;42.668;23.396;2023-06-10T07:33:57;6.13;;;5.53;;
8058;SDS011;4072;42.668;23.396;2023-06-10T07:36:25;6.30;;;5.70;;
8058;SDS011;4072;42.668;23.396;2023-06-10T07:38:57;7.47;;;5.73;;
8058;SDS011;4072;42.668;23.396;2023-06-10T07:41:25;6.83;;;5.97;;
8058;SDS011;4072;42.668;23.396;2023-06-10T07:43:53;6.63;;;5.43;;
8058;SDS011;4072;42.668;23.396;2023-06-10T07:46:23;7.03;;;6.33;;
8058;SDS011;4072;42.668;23.396;2023-06-10T07:48:54;7.90;;;6.20;;
8058;SDS011;4072;42.668;23.396;2023-06-10T07:51:22;10.30;;;6.60;;
8058;SDS011;4072;42.668;23.396;2023-06-10T07:53:51;7.97;;;6.20;;
8058;SDS011;4072;42.668;23.396;2023-06-10T07:56:21;6.10;;;5.50;;
8058;SDS011;4072;42.668;23.396;2023-06-10T07:58:49;5.70;;;5.20;;
8058;SDS011;4072;42.668;23.396;2023-06-10T08:01:17;5.10;;;4.60;;
8058;SDS011;4072;42.668;23.396;2023-06-10T08:03:45;6.95;;;4.70;;
8058;SDS011;4072;42.668;23.396;2023-06-10T08:06:13;4.87;;;4.20;;
8058;SDS011;4072;42.668;23.396;2023-06-10T08:08:43;4.75;;;4.35;;
8058;SDS011;4072;42.668;23.396;2023-06-10T08:11:12;4.77;;;3.97;;
8058;SDS011;4072;42.668;23.396;2023-06-10T08:13:42;4.47;;;4.05;;
8058;SDS011;4072;42.668;23.396;2023-06-10T08:16:11;7.80;;;4.57;;
8058;SDS011;4072;42.668;23.396;2023-06-10T08:18:39;6.10;;;4.22;;
8058;SDS011;4072;42.668;23.396;2023-06-10T08:21:07;5.20;;;4.03;;
8058;SDS011;4072;42.668;23.396;2023-06-10T08:23:36;4.90;;;4.40;;
8058;SDS011;4072;42.668;23.396;2023-06-10T08:26:04;4.53;;;4.13;;
8058;SDS011;4072;42.668;23.396;2023-06-10T08:28:33;6.13;;;4.55;;
8058;SDS011;4072;42.668;23.396;2023-06-10T08:31:03;4.70;;;3.90;;
8058;SDS011;4072;42.668;23.396;2023-06-10T08:33:31;4.78;;;4.22;;
8058;SDS011;4072;42.668;23.396;2023-06-10T08:35:59;4.38;;;4.00;;
8058;SDS011;4072;42.668;23.396;2023-06-10T08:38:28;4.85;;;4.40;;
8058;SDS011;4072;42.668;23.396;2023-06-10T08:40:59;5.05;;;3.65;;
8058;SDS011;4072;42.668;23.396;2023-06-10T08:43:29;5.10;;;3.63;;
8058;SDS011;4072;42.668;23.396;2023-06-10T08:46:03;2.60;;;2.40;;
8058;SDS011;4072;42.668;23.396;2023-06-10T08:48:31;3.20;;;2.90;;
8058;SDS011;4072;42.668;23.396;2023-06-10T08:51:05;4.13;;;3.72;;
8058;SDS011;4072;42.668;23.396;2023-06-10T08:53:35;3.15;;;2.85;;
8058;SDS011;4072;42.668;23.396;2023-06-10T08:56:05;3.63;;;2.95;;
8058;SDS011;4072;42.668;23.396;2023-06-10T08:58:33;3.20;;;2.90;;
8058;SDS011;4072;42.668;23.396;2023-06-10T09:01:09;3.58;;;3.28;;
8058;SDS011;4072;42.668;23.396;2023-06-10T09:03:37;3.45;;;3.15;;
8058;SDS011;4072;42.668;23.396;2023-06-10T09:06:07;4.88;;;3.70;;
8058;SDS011;4072;42.668;23.396;2023-06-10T09:08:36;3.70;;;3.40;;
8058;SDS011;4072;42.668;23.396;2023-06-10T09:11:06;6.07;;;4.03;;
8058;SDS011;4072;42.668;23.396;2023-06-10T09:13:34;3.40;;;3.10;;
8058;SDS011;4072;42.668;23.396;2023-06-10T09:16:02;5.00;;;3.50;;
8058;SDS011;4072;42.668;23.396;2023-06-10T09:18:33;4.28;;;2.80;;
8058;SDS011;4072;42.668;23.396;2023-06-10T09:21:01;4.00;;;3.40;;
8058;SDS011;4072;42.668;23.396;2023-06-10T09:23:30;4.00;;;3.55;;
8058;SDS011;4072;42.668;23.396;2023-06-10T09:25:59;4.50;;;3.42;;
8058;SDS011;4072;42.668;23.396;2023-06-10T09:28:27;3.75;;;3.45;;
8058;SDS011;4072;42.668;23.396;2023-06-10T09:31:02;3.78;;;2.92;;
8058;SDS011;4072;42.668;23.396;2023-06-10T09:33:35;3.58;;;3.28;;
8058;SDS011;4072;42.668;23.396;2023-06-10T09:36:05;3.80;;;3.17;;
8058;SDS011;4072;42.668;23.396;2023-06-10T09:38:34;3.10;;;2.90;;
8058;SDS011;4072;42.668;23.396;2023-06-10T09:41:03;4.95;;;2.83;;
8058;SDS011;4072;42.668;23.396;2023-06-10T09:43:38;5.43;;;3.15;;
8058;SDS011;4072;42.668;23.396;2023-06-10T09:46:13;4.28;;;3.00;;
8058;SDS011;4072;42.668;23.396;2023-06-10T09:48:45;3.88;;;2.63;;
8058;SDS011;4072;42.668;23.396;2023-06-10T09:51:15;4.05;;;3.13;;
8058;SDS011;4072;42.668;23.396;2023-06-10T09:53:47;5.50;;;3.75;;
8058;SDS011;4072;42.668;23.396;2023-06-10T09:56:17;3.70;;;2.85;;
8058;SDS011;4072;42.668;23.396;2023-06-10T09:58:46;4.88;;;3.78;;
8058;SDS011;4072;42.668;23.396;2023-06-10T10:01:14;4.32;;;3.92;;
8058;SDS011;4072;42.668;23.396;2023-06-10T10:03:45;4.30;;;3.05;;
8058;SDS011;4072;42.668;23.396;2023-06-10T10:06:14;5.15;;;2.90;;
8058;SDS011;4072;42.668;23.396;2023-06-10T10:08:43;4.60;;;3.45;;
8058;SDS011;4072;42.668;23.396;2023-06-10T10:11:12;4.32;;;3.20;;
8058;SDS011;4072;42.668;23.396;2023-06-10T10:13:44;3.10;;;2.80;;
8058;SDS011;4072;42.668;23.396;2023-06-10T10:16:16;5.78;;;3.78;;
8058;SDS011;4072;42.668;23.396;2023-06-10T10:18:49;4.28;;;3.60;;
8058;SDS011;4072;42.668;23.396;2023-06-10T10:21:22;6.85;;;3.60;;
8058;SDS011;4072;42.668;23.396;2023-06-10T10:23:53;6.70;;;3.05;;
8058;SDS011;4072;42.668;23.396;2023-06-10T10:26:26;8.98;;;3.72;;
8058;SDS011;4072;42.668;23.396;2023-06-10T10:29:03;6.10;;;3.42;;
8058;SDS011;4072;42.668;23.396;2023-06-10T10:31:38;4.32;;;3.60;;
8058;SDS011;4072;42.668;23.396;2023-06-10T10:34:12;3.67;;;3.38;;
8058;SDS011;4072;42.668;23.396;2023-06-10T10:36:43;3.90;;;3.50;;
8058;SDS011;4072;42.668;23.396;2023-06-10T10:39:15;5.10;;;3.97;;
8058;SDS011;4072;42.668;23.396;2023-06-10T10:41:45;3.78;;;3.47;;
8058;SDS011;4072;42.668;23.396;2023-06-10T10:44:17;6.72;;;3.53;;
8058;SDS011;4072;42.668;23.396;2023-06-10T10:46:48;3.85;;;3.50;;
8058;SDS011;4072;42.668;23.396;2023-06-10T10:49:19;3.25;;;3.05;;
8058;SDS011;4072;42.668;23.396;2023-06-10T10:51:56;3.83;;;3.25;;
8058;SDS011;4072;42.668;23.396;2023-06-10T10:54:28;3.88;;;3.40;;
8058;SDS011;4072;42.668;23.396;2023-06-10T10:57:11;3.80;;;3.10;;
8058;SDS011;4072;42.668;23.396;2023-06-10T10:59:44;4.95;;;3.28;;
8058;SDS011;4072;42.668;23.396;2023-06-10T11:02:16;4.18;;;3.78;;
8058;SDS011;4072;42.668;23.396;2023-06-10T11:04:47;6.78;;;3.47;;
8058;SDS011;4072;42.668;23.396;2023-06-10T11:07:19;4.10;;;3.10;;
8058;SDS011;4072;42.668;23.396;2023-06-10T11:09:57;3.63;;;3.20;;
8058;SDS011;4072;42.668;23.396;2023-06-10T11:12:26;4.45;;;3.28;;
8058;SDS011;4072;42.668;23.396;2023-06-10T11:15:08;3.60;;;3.30;;
8058;SDS011;4072;42.668;23.396;2023-06-10T11:17:37;3.17;;;2.88;;
8058;SDS011;4072;42.668;23.396;2023-06-10T11:20:08;3.85;;;2.90;;
8058;SDS011;4072;42.668;23.396;2023-06-10T11:22:44;3.58;;;3.28;;
8058;SDS011;4072;42.668;23.396;2023-06-10T11:25:37;3.63;;;3.33;;
8058;SDS011;4072;42.668;23.396;2023-06-10T11:28:17;3.30;;;3.00;;
8058;SDS011;4072;42.668;23.396;2023-06-10T11:30:46;4.85;;;3.67;;
8058;SDS011;4072;42.668;23.396;2023-06-10T11:33:25;4.07;;;3.67;;
8058;SDS011;4072;42.668;23.396;2023-06-10T11:35:56;4.05;;;3.65;;
8058;SDS011;4072;42.668;23.396;2023-06-10T11:38:24;3.85;;;3.50;;
8058;SDS011;4072;42.668;23.396;2023-06-10T11:40:53;3.50;;;3.20;;
8058;SDS011;4072;42.668;23.396;2023-06-10T11:43:21;4.97;;;3.10;;
8058;SDS011;4072;42.668;23.396;2023-06-10T11:45:53;3.67;;;3.40;;
8058;SDS011;4072;42.668;23.396;2023-06-10T11:48:25;4.03;;;3.55;;
8058;SDS011;4072;42.668;23.396;2023-06-10T11:50:56;3.60;;;2.95;;
8058;SDS011;4072;42.668;23.396;2023-06-10T11:53:25;7.45;;;3.00;;
8058;SDS011;4072;42.668;23.396;2023-06-10T11:55:53;3.90;;;2.92;;
8058;SDS011;4072;42.668;23.396;2023-06-10T11:58:22;3.65;;;3.08;;
8058;SDS011;4072;42.668;23.396;2023-06-10T12:00:51;3.90;;;3.50;;
8058;SDS011;4072;42.668;23.396;2023-06-10T12:03:20;3.50;;;3.20;;
8058;SDS011;4072;42.668;23.396;2023-06-10T12:05:58;4.72;;;3.20;;
8058;SDS011;4072;42.668;23.396;2023-06-10T12:08:27;10.52;;;5.50;;
8058;SDS011;4072;42.668;23.396;2023-06-10T12:10:56;3.38;;;3.08;;
8058;SDS011;4072;42.668;23.396;2023-06-10T12:13:25;4.82;;;3.30;;
8058;SDS011;4072;42.668;23.396;2023-06-10T12:15:54;8.10;;;4.88;;
8058;SDS011;4072;42.668;23.396;2023-06-10T12:18:34;4.18;;;3.00;;
8058;SDS011;4072;42.668;23.396;2023-06-10T12:21:05;10.38;;;5.60;;
8058;SDS011;4072;42.668;23.396;2023-06-10T12:26:37;3.17;;;2.75;;
8058;SDS011;4072;42.668;23.396;2023-06-10T12:29:20;3.17;;;2.90;;
8058;SDS011;4072;42.668;23.396;2023-06-10T12:31:54;2.95;;;2.75;;
8058;SDS011;4072;42.668;23.396;2023-06-10T12:34:35;3.28;;;2.80;;
8058;SDS011;4072;42.668;23.396;2023-06-10T12:37:09;6.60;;;4.95;;
8058;SDS011;4072;42.668;23.396;2023-06-10T12:39:40;4.13;;;3.28;;
8058;SDS011;4072;42.668;23.396;2023-06-10T12:42:11;3.72;;;3.35;;
8058;SDS011;4072;42.668;23.396;2023-06-10T12:44:41;5.47;;;3.13;;
8058;SDS011;4072;42.668;23.396;2023-06-10T12:47:09;4.00;;;2.72;;
8058;SDS011;4072;42.668;23.396;2023-06-10T12:49:38;3.75;;;2.65;;
8058;SDS011;4072;42.668;23.396;2023-06-10T12:52:08;5.20;;;3.17;;
8058;SDS011;4072;42.668;23.396;2023-06-10T12:54:37;2.95;;;2.75;;
8058;SDS011;4072;42.668;23.396;2023-06-10T12:57:05;4.60;;;2.83;;
8058;SDS011;4072;42.668;23.396;2023-06-10T12:59:35;3.42;;;2.70;;
8058;SDS011;4072;42.668;23.396;2023-06-10T13:02:03;2.58;;;2.38;;
8058;SDS011;4072;42.668;23.396;2023-06-10T13:04:32;3.22;;;2.92;;
8058;SDS011;4072;42.668;23.396;2023-06-10T13:07:00;2.88;;;2.67;;
8058;SDS011;4072;42.668;23.396;2023-06-10T13:09:29;3.67;;;3.17;;
8058;SDS011;4072;42.668;23.396;2023-06-10T13:11:58;4.82;;;3.28;;
8058;SDS011;4072;42.668;23.396;2023-06-10T13:14:27;3.75;;;3.30;;
8058;SDS011;4072;42.668;23.396;2023-06-10T13:16:56;3.47;;;3.17;;
8058;SDS011;4072;42.668;23.396;2023-06-10T13:19:24;3.53;;;2.65;;
8058;SDS011;4072;42.668;23.396;2023-06-10T13:21:53;3.47;;;2.67;;
8058;SDS011;4072;42.668;23.396;2023-06-10T13:24:21;3.10;;;2.80;;
8058;SDS011;4072;42.668;23.396;2023-06-10T13:26:51;3.47;;;3.17;;
8058;SDS011;4072;42.668;23.396;2023-06-10T13:29:19;3.13;;;2.85;;
8058;SDS011;4072;42.668;23.396;2023-06-10T13:31:48;3.72;;;2.72;;
8058;SDS011;4072;42.668;23.396;2023-06-10T13:34:16;3.30;;;3.00;;
8058;SDS011;4072;42.668;23.396;2023-06-10T13:36:45;4.65;;;3.25;;
8058;SDS011;4072;42.668;23.396;2023-06-10T13:39:13;4.15;;;3.40;;
8058;SDS011;4072;42.668;23.396;2023-06-10T13:41:42;3.92;;;3.13;;
8058;SDS011;4072;42.668;23.396;2023-06-10T13:44:11;4.82;;;3.45;;
8058;SDS011;4072;42.668;23.396;2023-06-10T13:46:41;5.47;;;3.47;;
8058;SDS011;4072;42.668;23.396;2023-06-10T13:49:13;5.03;;;3.60;;
8058;SDS011;4072;42.668;23.396;2023-06-10T13:51:42;6.55;;;3.97;;
8058;SDS011;4072;42.668;23.396;2023-06-10T13:54:12;3.83;;;3.50;;
8058;SDS011;4072;42.668;23.396;2023-06-10T13:56:42;5.45;;;3.90;;
8058;SDS011;4072;42.668;23.396;2023-06-10T13:59:13;3.95;;;3.55;;
8058;SDS011;4072;42.668;23.396;2023-06-10T14:01:41;3.88;;;3.20;;
8058;SDS011;4072;42.668;23.396;2023-06-10T14:04:09;5.40;;;4.35;;
8058;SDS011;4072;42.668;23.396;2023-06-10T14:06:38;6.95;;;4.22;;
8058;SDS011;4072;42.668;23.396;2023-06-10T14:09:06;4.45;;;4.05;;
8058;SDS011;4072;42.668;23.396;2023-06-10T14:11:34;9.02;;;4.15;;
8058;SDS011;4072;42.668;23.396;2023-06-10T14:14:02;4.38;;;3.90;;
8058;SDS011;4072;42.668;23.396;2023-06-10T14:16:32;5.32;;;3.63;;
8058;SDS011;4072;42.668;23.396;2023-06-10T14:19:00;4.55;;;3.70;;
8058;SDS011;4072;42.668;23.396;2023-06-10T14:21:28;6.72;;;3.50;;
8058;SDS011;4072;42.668;23.396;2023-06-10T14:23:57;4.72;;;3.70;;
8058;SDS011;4072;42.668;23.396;2023-06-10T14:26:25;6.10;;;4.60;;
8058;SDS011;4072;42.668;23.396;2023-06-10T14:28:53;5.18;;;3.60;;
8058;SDS011;4072;42.668;23.396;2023-06-10T14:31:21;3.42;;;3.13;;
8058;SDS011;4072;42.668;23.396;2023-06-10T14:33:51;4.20;;;3.80;;
8058;SDS011;4072;42.668;23.396;2023-06-10T14:36:19;3.83;;;3.42;;
8058;SDS011;4072;42.668;23.396;2023-06-10T14:38:48;5.55;;;3.65;;
8058;SDS011;4072;42.668;23.396;2023-06-10T14:41:17;5.03;;;3.90;;
8058;SDS011;4072;42.668;23.396;2023-06-10T14:43:46;4.15;;;3.75;;
8058;SDS011;4072;42.668;23.396;2023-06-10T14:46:14;5.00;;;3.65;;
8058;SDS011;4072;42.668;23.396;2023-06-10T14:48:43;4.63;;;3.63;;
8058;SDS011;4072;42.668;23.396;2023-06-10T14:51:13;4.28;;;3.78;;
8058;SDS011;4072;42.668;23.396;2023-06-10T14:53:41;5.20;;;3.88;;
8058;SDS011;4072;42.668;23.396;2023-06-10T14:56:09;3.90;;;3.38;;
8058;SDS011;4072;42.668;23.396;2023-06-10T14:58:37;6.15;;;4.72;;
8058;SDS011;4072;42.668;23.396;2023-06-10T15:01:06;4.82;;;3.97;;
8058;SDS011;4072;42.668;23.396;2023-06-10T15:03:34;4.40;;;4.00;;
8058;SDS011;4072;42.668;23.396;2023-06-10T15:06:02;5.50;;;3.78;;
8058;SDS011;4072;42.668;23.396;2023-06-10T15:08:32;4.20;;;3.80;;
8058;SDS011;4072;42.668;23.396;2023-06-10T15:11:00;3.58;;;3.28;;